Station Historical Data
Daily Summary for March 28, 2017 Units:  Both    English   Metric
« Previous Day
Next Day »
Daily Weekly Monthly Yearly Custom
  High: Low: Average:
Temperature: 47.8 °F /  8.8 °C 42.2 °F /  5.7 °C 45.3 °F /  7.4 °C
Dew Point: 46.2 °F /  7.9 °C 36.5 °F /  2.5 °C 41.5 °F /  5.3 °C
Humidity: 94% 78% 87%
Wind Speed: 9.0mph /  14.5km/h - 2.2mph /  3.5km/h
Wind Gust: 10.0mph /  16.1km/h - -
Wind- - WSW
Pressure: 30.15 in /  1020.9 hPa 29.87 in /  1011.4 hPa -
Precipitation: 0.00 in /  0 mm    
Historical Graphs
 
 
Tabular Data for March 28, 2017
Time Temperature Dew Point Pressure Wind Wind Speed Wind Gust Humidity Rainfall Rate (Hourly)
00:04 46.4 °F /  8 °C 44.2 °F /  6.8 °C 29.91in /  1012.8hPa Calm     92% 0.00in /  0mm
00:09 46.3 °F /  7.9 °C 44.1 °F /  6.7 °C 29.91in /  1012.8hPa Calm     92% 0.00in /  0mm
00:14 46.1 °F /  7.8 °C 43.9 °F /  6.6 °C 29.91in /  1012.8hPa Calm     92% 0.00in /  0mm
00:19 45.9 °F /  7.7 °C 43.7 °F /  6.5 °C 29.91in /  1012.8hPa Calm     92% 0.00in /  0mm
00:24 45.8 °F /  7.7 °C 43.6 °F /  6.4 °C 29.91in /  1012.8hPa Calm     92% 0.00in /  0mm
00:29 45.7 °F /  7.6 °C 43.5 °F /  6.4 °C 29.91in /  1012.8hPa Calm     92% 0.00in /  0mm
00:34 45.7 °F /  7.6 °C 43.8 °F /  6.6 °C 29.91in /  1012.8hPa Calm     93% 0.00in /  0mm
00:39 45.6 °F /  7.6 °C 43.4 °F /  6.3 °C 29.91in /  1012.8hPa Calm     92% 0.00in /  0mm
00:44 45.4 °F /  7.4 °C 43.2 °F /  6.2 °C 29.91in /  1012.8hPa Calm     92% 0.00in /  0mm
00:49 45.3 °F /  7.4 °C 43.1 °F /  6.2 °C 29.91in /  1012.8hPa Calm     92% 0.00in /  0mm
00:54 45.1 °F /  7.3 °C 43.2 °F /  6.2 °C 29.91in /  1012.8hPa Calm     93% 0.00in /  0mm
00:59 45.1 °F /  7.3 °C 43.2 °F /  6.2 °C 29.91in /  1012.8hPa Calm     93% 0.00in /  0mm
01:04 45.1 °F /  7.3 °C 43.2 °F /  6.2 °C 29.91in /  1012.8hPa Calm     93% 0.00in /  0mm
01:09 45.4 °F /  7.4 °C 43.5 °F /  6.4 °C 29.91in /  1012.8hPa SW 1.0mph /  1.6km/h 3.0mph /  4.8km/h 93% 0.00in /  0mm
01:14 45.7 °F /  7.6 °C 43.8 °F /  6.6 °C 29.90in /  1012.4hPa SW 2.0mph /  3.2km/h 3.0mph /  4.8km/h 93% 0.00in /  0mm
01:19 45.7 °F /  7.6 °C 43.8 °F /  6.6 °C 29.90in /  1012.4hPa SW 1.0mph /  1.6km/h 3.0mph /  4.8km/h 93% 0.00in /  0mm
01:24 45.4 °F /  7.4 °C 43.2 °F /  6.2 °C 29.90in /  1012.4hPa Calm   2.0mph /  3.2km/h 92% 0.00in /  0mm
01:29 45.1 °F /  7.3 °C 43.2 °F /  6.2 °C 29.90in /  1012.4hPa Calm     93% 0.00in /  0mm
01:34 45.0 °F /  7.2 °C 43.1 °F /  6.2 °C 29.90in /  1012.4hPa Calm     93% 0.00in /  0mm
01:39 45.3 °F /  7.4 °C 43.4 °F /  6.3 °C 29.91in /  1012.8hPa Calm     93% 0.00in /  0mm
01:44 45.8 °F /  7.7 °C 43.9 °F /  6.6 °C 29.90in /  1012.4hPa Calm     93% 0.00in /  0mm
01:49 46.0 °F /  7.8 °C 44.1 °F /  6.7 °C 29.90in /  1012.4hPa Calm     93% 0.00in /  0mm
01:54 46.1 °F /  7.8 °C 44.2 °F /  6.8 °C 29.91in /  1012.8hPa Calm     93% 0.00in /  0mm
01:59 46.0 °F /  7.8 °C 44.1 °F /  6.7 °C 29.91in /  1012.8hPa Calm     93% 0.00in /  0mm
02:04 45.9 °F /  7.7 °C 44.0 °F /  6.7 °C 29.90in /  1012.4hPa Calm     93% 0.00in /  0mm
02:09 45.7 °F /  7.6 °C 43.8 °F /  6.6 °C 29.90in /  1012.4hPa Calm     93% 0.00in /  0mm
02:14 45.5 °F /  7.5 °C 43.3 °F /  6.3 °C 29.89in /  1012.1hPa Calm     92% 0.00in /  0mm
02:19 45.3 °F /  7.4 °C 43.4 °F /  6.3 °C 29.89in /  1012.1hPa Calm     93% 0.00in /  0mm
02:24 45.0 °F /  7.2 °C 42.8 °F /  6 °C 29.89in /  1012.1hPa Calm     92% 0.00in /  0mm
02:29 44.6 °F /  7 °C 42.4 °F /  5.8 °C 29.89in /  1012.1hPa Calm     92% 0.00in /  0mm
02:34 44.3 °F /  6.8 °C 42.4 °F /  5.8 °C 29.89in /  1012.1hPa Calm     93% 0.00in /  0mm
02:39 44.2 °F /  6.8 °C 42.3 °F /  5.7 °C 29.89in /  1012.1hPa Calm     93% 0.00in /  0mm
02:44 44.3 °F /  6.8 °C 42.4 °F /  5.8 °C 29.89in /  1012.1hPa Calm     93% 0.00in /  0mm
02:49 44.3 °F /  6.8 °C 42.4 °F /  5.8 °C 29.88in /  1011.7hPa Calm     93% 0.00in /  0mm
02:54 44.0 °F /  6.7 °C 42.1 °F /  5.6 °C 29.88in /  1011.7hPa Calm     93% 0.00in /  0mm
02:59 44.1 °F /  6.7 °C 42.2 °F /  5.7 °C 29.88in /  1011.7hPa Calm     93% 0.00in /  0mm
03:04 44.2 °F /  6.8 °C 42.3 °F /  5.7 °C 29.88in /  1011.7hPa Calm     93% 0.00in /  0mm
03:09 44.4 °F /  6.9 °C 42.5 °F /  5.8 °C 29.88in /  1011.7hPa Calm     93% 0.00in /  0mm
03:14 44.4 °F /  6.9 °C 42.5 °F /  5.8 °C 29.88in /  1011.7hPa Calm     93% 0.00in /  0mm
03:19 44.7 °F /  7.1 °C 42.8 °F /  6 °C 29.88in /  1011.7hPa Calm     93% 0.00in /  0mm
03:24 44.7 °F /  7.1 °C 42.8 °F /  6 °C 29.88in /  1011.7hPa Calm     93% 0.00in /  0mm
03:29 44.7 °F /  7.1 °C 42.8 °F /  6 °C 29.88in /  1011.7hPa Calm     93% 0.00in /  0mm
03:34 44.7 °F /  7.1 °C 42.8 °F /  6 °C 29.88in /  1011.7hPa Calm     93% 0.00in /  0mm
03:39 44.4 °F /  6.9 °C 42.5 °F /  5.8 °C 29.88in /  1011.7hPa Calm     93% 0.00in /  0mm
03:44 44.2 °F /  6.8 °C 42.3 °F /  5.7 °C 29.88in /  1011.7hPa Calm     93% 0.00in /  0mm
03:49 43.8 °F /  6.6 °C 41.9 °F /  5.5 °C 29.89in /  1012.1hPa Calm     93% 0.00in /  0mm
03:54 43.6 °F /  6.4 °C 41.7 °F /  5.4 °C 29.88in /  1011.7hPa Calm     93% 0.00in /  0mm
03:59 43.4 °F /  6.3 °C 41.5 °F /  5.3 °C 29.88in /  1011.7hPa Calm     93% 0.00in /  0mm
04:04 43.1 °F /  6.2 °C 41.2 °F /  5.1 °C 29.88in /  1011.7hPa Calm     93% 0.00in /  0mm
04:09 43.0 °F /  6.1 °C 41.4 °F /  5.2 °C 29.88in /  1011.7hPa Calm     94% 0.00in /  0mm
04:14 43.1 °F /  6.2 °C 41.5 °F /  5.3 °C 29.88in /  1011.7hPa Calm     94% 0.00in /  0mm
04:19 43.3 °F /  6.3 °C 41.7 °F /  5.4 °C 29.88in /  1011.7hPa Calm     94% 0.00in /  0mm
04:24 43.4 °F /  6.3 °C 41.8 °F /  5.4 °C 29.87in /  1011.4hPa Calm     94% 0.00in /  0mm
04:29 43.7 °F /  6.5 °C 42.1 °F /  5.6 °C 29.87in /  1011.4hPa Calm     94% 0.00in /  0mm
04:34 43.6 °F /  6.4 °C 42.0 °F /  5.6 °C 29.88in /  1011.7hPa Calm     94% 0.00in /  0mm
04:39 43.7 °F /  6.5 °C 42.1 °F /  5.6 °C 29.88in /  1011.7hPa Calm     94% 0.00in /  0mm
04:44 43.7 °F /  6.5 °C 42.1 °F /  5.6 °C 29.88in /  1011.7hPa Calm     94% 0.00in /  0mm
04:49 43.8 °F /  6.6 °C 42.2 °F /  5.7 °C 29.88in /  1011.7hPa Calm     94% 0.00in /  0mm
04:54 44.1 °F /  6.7 °C 42.5 °F /  5.8 °C 29.88in /  1011.7hPa Calm     94% 0.00in /  0mm
04:59 44.4 °F /  6.9 °C 42.8 °F /  6 °C 29.87in /  1011.4hPa Calm     94% 0.00in /  0mm
05:04 44.8 °F /  7.1 °C 43.2 °F /  6.2 °C 29.87in /  1011.4hPa Calm     94% 0.00in /  0mm
05:09 45.1 °F /  7.3 °C 43.5 °F /  6.4 °C 29.88in /  1011.7hPa Calm     94% 0.00in /  0mm
05:14 45.2 °F /  7.3 °C 43.6 °F /  6.4 °C 29.88in /  1011.7hPa NW 2.0mph /  3.2km/h 2.0mph /  3.2km/h 94% 0.00in /  0mm
05:19 45.2 °F /  7.3 °C 43.6 °F /  6.4 °C 29.88in /  1011.7hPa Calm   3.0mph /  4.8km/h 94% 0.00in /  0mm
05:24 45.3 °F /  7.4 °C 43.7 °F /  6.5 °C 29.88in /  1011.7hPa Calm     94% 0.00in /  0mm
05:29 45.3 °F /  7.4 °C 43.7 °F /  6.5 °C 29.88in /  1011.7hPa Calm     94% 0.00in /  0mm
05:34 45.3 °F /  7.4 °C 43.7 °F /  6.5 °C 29.88in /  1011.7hPa Calm     94% 0.00in /  0mm
05:39 45.3 °F /  7.4 °C 43.7 °F /  6.5 °C 29.88in /  1011.7hPa Calm     94% 0.00in /  0mm
05:44 45.4 °F /  7.4 °C 43.8 °F /  6.6 °C 29.88in /  1011.7hPa Calm     94% 0.00in /  0mm
05:49 45.4 °F /  7.4 °C 43.8 °F /  6.6 °C 29.89in /  1012.1hPa Calm     94% 0.00in /  0mm
05:54 45.4 °F /  7.4 °C 43.8 °F /  6.6 °C 29.89in /  1012.1hPa Calm     94% 0.00in /  0mm
05:59 45.5 °F /  7.5 °C 43.9 °F /  6.6 °C 29.88in /  1011.7hPa Calm     94% 0.00in /  0mm
06:04 45.9 °F /  7.7 °C 44.3 °F /  6.8 °C 29.88in /  1011.7hPa Calm     94% 0.00in /  0mm
06:09 46.2 °F /  7.9 °C 44.6 °F /  7 °C 29.88in /  1011.7hPa Calm     94% 0.00in /  0mm
06:14 46.4 °F /  8 °C 44.8 °F /  7.1 °C 29.88in /  1011.7hPa Calm     94% 0.00in /  0mm
06:19 46.3 °F /  7.9 °C 44.7 °F /  7.1 °C 29.89in /  1012.1hPa Calm     94% 0.00in /  0mm
06:24 46.3 °F /  7.9 °C 44.7 °F /  7.1 °C 29.89in /  1012.1hPa Calm     94% 0.00in /  0mm
06:29 46.4 °F /  8 °C 44.8 °F /  7.1 °C 29.89in /  1012.1hPa Calm     94% 0.00in /  0mm
06:34 46.5 °F /  8.1 °C 44.9 °F /  7.2 °C 29.89in /  1012.1hPa Calm     94% 0.00in /  0mm
06:39 46.5 °F /  8.1 °C 44.9 °F /  7.2 °C 29.89in /  1012.1hPa Calm     94% 0.00in /  0mm
06:44 46.6 °F /  8.1 °C 45.0 °F /  7.2 °C 29.89in /  1012.1hPa Calm     94% 0.00in /  0mm
06:49 46.5 °F /  8.1 °C 44.9 °F /  7.2 °C 29.90in /  1012.4hPa Calm     94% 0.00in /  0mm
06:54 46.4 °F /  8 °C 44.8 °F /  7.1 °C 29.90in /  1012.4hPa Calm     94% 0.00in /  0mm
06:59 46.5 °F /  8.1 °C 44.9 °F /  7.2 °C 29.90in /  1012.4hPa Calm     94% 0.00in /  0mm
07:04 46.7 °F /  8.2 °C 45.1 °F /  7.3 °C 29.91in /  1012.8hPa Calm     94% 0.00in /  0mm
07:09 46.7 °F /  8.2 °C 45.1 °F /  7.3 °C 29.91in /  1012.8hPa Calm     94% 0.00in /  0mm
07:14 46.7 °F /  8.2 °C 45.1 °F /  7.3 °C 29.91in /  1012.8hPa Calm     94% 0.00in /  0mm
07:19 46.6 °F /  8.1 °C 44.7 °F /  7.1 °C 29.91in /  1012.8hPa Calm     93% 0.00in /  0mm
07:24 46.6 °F /  8.1 °C 44.7 °F /  7.1 °C 29.92in /  1013.1hPa Calm     93% 0.00in /  0mm
07:29 46.5 °F /  8.1 °C 44.6 °F /  7 °C 29.92in /  1013.1hPa Calm     93% 0.00in /  0mm
07:34 46.7 °F /  8.2 °C 45.1 °F /  7.3 °C 29.92in /  1013.1hPa Calm     94% 0.00in /  0mm
07:39 46.8 °F /  8.2 °C 45.2 °F /  7.3 °C 29.92in /  1013.1hPa Calm     94% 0.00in /  0mm
07:44 47.1 °F /  8.4 °C 45.5 °F /  7.5 °C 29.92in /  1013.1hPa Calm     94% 0.00in /  0mm
07:49 47.5 °F /  8.6 °C 45.9 °F /  7.7 °C 29.92in /  1013.1hPa Calm   5.0mph /  8km/h 94% 0.00in /  0mm
07:54 47.7 °F /  8.7 °C 46.1 °F /  7.8 °C 29.92in /  1013.1hPa North 1.0mph /  1.6km/h 5.0mph /  8km/h 94% 0.00in /  0mm
07:59 47.8 °F /  8.8 °C 46.2 °F /  7.9 °C 29.93in /  1013.4hPa North 2.0mph /  3.2km/h 4.0mph /  6.4km/h 94% 0.00in /  0mm
08:04 47.8 °F /  8.8 °C 45.9 °F /  7.7 °C 29.92in /  1013.1hPa North 4.0mph /  6.4km/h 7.0mph /  11.3km/h 93% 0.00in /  0mm
08:09 47.8 °F /  8.8 °C 46.2 °F /  7.9 °C 29.93in /  1013.4hPa Calm   4.0mph /  6.4km/h 94% 0.00in /  0mm
08:14 47.8 °F /  8.8 °C 45.9 °F /  7.7 °C 29.93in /  1013.4hPa NNW 2.0mph /  3.2km/h 6.0mph /  9.7km/h 93% 0.00in /  0mm
08:19 47.7 °F /  8.7 °C 45.8 °F /  7.7 °C 29.93in /  1013.4hPa North 2.0mph /  3.2km/h 6.0mph /  9.7km/h 93% 0.00in /  0mm
08:24 47.6 °F /  8.7 °C 46.0 °F /  7.8 °C 29.93in /  1013.4hPa North 3.0mph /  4.8km/h 4.0mph /  6.4km/h 94% 0.00in /  0mm
08:29 47.2 °F /  8.4 °C 45.3 °F /  7.4 °C 29.93in /  1013.4hPa NNW 3.0mph /  4.8km/h 6.0mph /  9.7km/h 93% 0.00in /  0mm
08:34 46.8 °F /  8.2 °C 44.9 °F /  7.2 °C 29.93in /  1013.4hPa North 1.0mph /  1.6km/h 8.0mph /  12.9km/h 93% 0.00in /  0mm
08:39 46.8 °F /  8.2 °C 45.2 °F /  7.3 °C 29.93in /  1013.4hPa North 4.0mph /  6.4km/h 6.0mph /  9.7km/h 94% 0.00in /  0mm
08:44 46.7 °F /  8.2 °C 44.8 °F /  7.1 °C 29.93in /  1013.4hPa North 2.0mph /  3.2km/h 6.0mph /  9.7km/h 93% 0.00in /  0mm
08:49 46.5 °F /  8.1 °C 44.6 °F /  7 °C 29.93in /  1013.4hPa North 3.0mph /  4.8km/h 6.0mph /  9.7km/h 93% 0.00in /  0mm
08:54 46.5 °F /  8.1 °C 44.6 °F /  7 °C 29.94in /  1013.8hPa North 3.0mph /  4.8km/h 5.0mph /  8km/h 93% 0.00in /  0mm
08:59 46.5 °F /  8.1 °C 44.6 °F /  7 °C 29.94in /  1013.8hPa NNE 3.0mph /  4.8km/h 5.0mph /  8km/h 93% 0.00in /  0mm
09:04 46.5 °F /  8.1 °C 44.6 °F /  7 °C 29.94in /  1013.8hPa NNW 1.0mph /  1.6km/h 4.0mph /  6.4km/h 93% 0.00in /  0mm
09:09 46.6 °F /  8.1 °C 44.7 °F /  7.1 °C 29.94in /  1013.8hPa NNE 2.0mph /  3.2km/h 4.0mph /  6.4km/h 93% 0.00in /  0mm
09:14 46.6 °F /  8.1 °C 44.7 °F /  7.1 °C 29.94in /  1013.8hPa North 3.0mph /  4.8km/h 6.0mph /  9.7km/h 93% 0.00in /  0mm
09:19 46.7 °F /  8.2 °C 44.8 °F /  7.1 °C 29.94in /  1013.8hPa North 3.0mph /  4.8km/h 6.0mph /  9.7km/h 93% 0.00in /  0mm
09:24 46.8 °F /  8.2 °C 44.6 °F /  7 °C 29.94in /  1013.8hPa North 2.0mph /  3.2km/h 5.0mph /  8km/h 92% 0.00in /  0mm
09:29 46.7 °F /  8.2 °C 44.5 °F /  6.9 °C 29.94in /  1013.8hPa NNE 2.0mph /  3.2km/h 5.0mph /  8km/h 92% 0.00in /  0mm
09:34 46.9 °F /  8.3 °C 44.7 °F /  7.1 °C 29.94in /  1013.8hPa North 2.0mph /  3.2km/h 4.0mph /  6.4km/h 92% 0.00in /  0mm
09:39 46.8 °F /  8.2 °C 44.3 °F /  6.8 °C 29.94in /  1013.8hPa NNE 4.0mph /  6.4km/h 6.0mph /  9.7km/h 91% 0.00in /  0mm
09:44 46.8 °F /  8.2 °C 44.3 °F /  6.8 °C 29.94in /  1013.8hPa NNW 3.0mph /  4.8km/h 5.0mph /  8km/h 91% 0.00in /  0mm
09:49 46.8 °F /  8.2 °C 44.3 °F /  6.8 °C 29.94in /  1013.8hPa North 3.0mph /  4.8km/h 6.0mph /  9.7km/h 91% 0.00in /  0mm
09:54 46.7 °F /  8.2 °C 43.9 °F /  6.6 °C 29.94in /  1013.8hPa North 3.0mph /  4.8km/h 7.0mph /  11.3km/h 90% 0.00in /  0mm
09:59 46.9 °F /  8.3 °C 44.1 °F /  6.7 °C 29.95in /  1014.1hPa North 3.0mph /  4.8km/h 7.0mph /  11.3km/h 90% 0.00in /  0mm
10:04 46.6 °F /  8.1 °C 43.5 °F /  6.4 °C 29.95in /  1014.1hPa North 3.0mph /  4.8km/h 10.0mph /  16.1km/h 89% 0.00in /  0mm
10:09 46.3 °F /  7.9 °C 43.2 °F /  6.2 °C 29.95in /  1014.1hPa North 4.0mph /  6.4km/h 7.0mph /  11.3km/h 89% 0.00in /  0mm
10:14 46.1 °F /  7.8 °C 43.0 °F /  6.1 °C 29.95in /  1014.1hPa NNE 5.0mph /  8km/h 8.0mph /  12.9km/h 89% 0.00in /  0mm
10:19 45.9 °F /  7.7 °C 42.8 °F /  6 °C 29.95in /  1014.1hPa North 2.0mph /  3.2km/h 7.0mph /  11.3km/h 89% 0.00in /  0mm
10:24 45.8 °F /  7.7 °C 42.7 °F /  5.9 °C 29.95in /  1014.1hPa NNW 3.0mph /  4.8km/h 6.0mph /  9.7km/h 89% 0.00in /  0mm
10:29 45.6 °F /  7.6 °C 42.5 °F /  5.8 °C 29.96in /  1014.4hPa NNE 4.0mph /  6.4km/h 8.0mph /  12.9km/h 89% 0.00in /  0mm
10:34 45.4 °F /  7.4 °C 42.3 °F /  5.7 °C 29.96in /  1014.4hPa North 2.0mph /  3.2km/h 6.0mph /  9.7km/h 89% 0.00in /  0mm
10:39 45.5 °F /  7.5 °C 42.2 °F /  5.7 °C 29.96in /  1014.4hPa North 2.0mph /  3.2km/h 5.0mph /  8km/h 88% 0.00in /  0mm
10:44 45.6 °F /  7.6 °C 42.3 °F /  5.7 °C 29.96in /  1014.4hPa North 1.0mph /  1.6km/h 4.0mph /  6.4km/h 88% 0.00in /  0mm
10:49 45.7 °F /  7.6 °C 42.1 °F /  5.6 °C 29.96in /  1014.4hPa North 3.0mph /  4.8km/h 6.0mph /  9.7km/h 87% 0.00in /  0mm
10:54 45.9 °F /  7.7 °C 41.9 °F /  5.5 °C 29.97in /  1014.8hPa North 3.0mph /  4.8km/h 6.0mph /  9.7km/h 86% 0.00in /  0mm
10:59 46.0 °F /  7.8 °C 41.7 °F /  5.4 °C 29.97in /  1014.8hPa North 4.0mph /  6.4km/h 8.0mph /  12.9km/h 85% 0.00in /  0mm
11:04 46.1 °F /  7.8 °C 41.5 °F /  5.3 °C 29.97in /  1014.8hPa North 4.0mph /  6.4km/h 7.0mph /  11.3km/h 84% 0.00in /  0mm
11:09 46.0 °F /  7.8 °C 41.4 °F /  5.2 °C 29.97in /  1014.8hPa NNW 3.0mph /  4.8km/h 7.0mph /  11.3km/h 84% 0.00in /  0mm
11:14 45.9 °F /  7.7 °C 41.3 °F /  5.2 °C 29.97in /  1014.8hPa North 5.0mph /  8km/h 10.0mph /  16.1km/h 84% 0.00in /  0mm
11:19 45.8 °F /  7.7 °C 41.2 °F /  5.1 °C 29.97in /  1014.8hPa NNW 4.0mph /  6.4km/h 10.0mph /  16.1km/h 84% 0.00in /  0mm
11:24 45.9 °F /  7.7 °C 41.0 °F /  5 °C 29.97in /  1014.8hPa North 4.0mph /  6.4km/h 8.0mph /  12.9km/h 83% 0.00in /  0mm
11:29 45.9 °F /  7.7 °C 41.3 °F /  5.2 °C 29.97in /  1014.8hPa North 3.0mph /  4.8km/h 6.0mph /  9.7km/h 84% 0.00in /  0mm
11:34 46.1 °F /  7.8 °C 41.5 °F /  5.3 °C 29.97in /  1014.8hPa NNW 7.0mph /  11.3km/h 7.0mph /  11.3km/h 84% 0.00in /  0mm
11:39 45.9 °F /  7.7 °C 41.0 °F /  5 °C 29.97in /  1014.8hPa North 3.0mph /  4.8km/h 8.0mph /  12.9km/h 83% 0.00in /  0mm
11:44 45.6 °F /  7.6 °C 40.7 °F /  4.8 °C 29.97in /  1014.8hPa NNW 2.0mph /  3.2km/h 9.0mph /  14.5km/h 83% 0.00in /  0mm
11:49 45.5 °F /  7.5 °C 40.6 °F /  4.8 °C 29.97in /  1014.8hPa North 4.0mph /  6.4km/h 9.0mph /  14.5km/h 83% 0.00in /  0mm
11:54 45.6 °F /  7.6 °C 40.7 °F /  4.8 °C 29.97in /  1014.8hPa North 4.0mph /  6.4km/h 8.0mph /  12.9km/h 83% 0.00in /  0mm
11:59 45.6 °F /  7.6 °C 40.7 °F /  4.8 °C 29.97in /  1014.8hPa North 4.0mph /  6.4km/h 8.0mph /  12.9km/h 83% 0.00in /  0mm
12:04 45.2 °F /  7.3 °C 40.3 °F /  4.6 °C 29.97in /  1014.8hPa North 2.0mph /  3.2km/h 7.0mph /  11.3km/h 83% 0.00in /  0mm
12:09 45.3 °F /  7.4 °C 40.4 °F /  4.7 °C 29.97in /  1014.8hPa NNW 9.0mph /  14.5km/h 9.0mph /  14.5km/h 83% 0.00in /  0mm
12:14 45.2 °F /  7.3 °C 40.3 °F /  4.6 °C 29.97in /  1014.8hPa NNW 1.0mph /  1.6km/h 9.0mph /  14.5km/h 83% 0.00in /  0mm
12:19 44.7 °F /  7.1 °C 39.5 °F /  4.2 °C 29.97in /  1014.8hPa North 4.0mph /  6.4km/h 9.0mph /  14.5km/h 82% 0.00in /  0mm
12:24 44.4 °F /  6.9 °C 39.6 °F /  4.2 °C 29.97in /  1014.8hPa NNW 4.0mph /  6.4km/h 8.0mph /  12.9km/h 83% 0.00in /  0mm
12:29 44.2 °F /  6.8 °C 39.4 °F /  4.1 °C 29.97in /  1014.8hPa NNW 5.0mph /  8km/h 9.0mph /  14.5km/h 83% 0.00in /  0mm
12:34 44.5 °F /  6.9 °C 39.7 °F /  4.3 °C 29.97in /  1014.8hPa NNW 2.0mph /  3.2km/h 6.0mph /  9.7km/h 83% 0.00in /  0mm
12:39 44.9 °F /  7.2 °C 40.4 °F /  4.7 °C 29.97in /  1014.8hPa NNE 3.0mph /  4.8km/h 7.0mph /  11.3km/h 84% 0.00in /  0mm
12:44 45.1 °F /  7.3 °C 39.9 °F /  4.4 °C 29.97in /  1014.8hPa North 4.0mph /  6.4km/h 7.0mph /  11.3km/h 82% 0.00in /  0mm
12:49 45.2 °F /  7.3 °C 40.0 °F /  4.4 °C 29.97in /  1014.8hPa North 7.0mph /  11.3km/h 10.0mph /  16.1km/h 82% 0.00in /  0mm
12:54 45.4 °F /  7.4 °C 40.2 °F /  4.6 °C 29.97in /  1014.8hPa North 4.0mph /  6.4km/h 10.0mph /  16.1km/h 82% 0.00in /  0mm
12:59 45.5 °F /  7.5 °C 40.0 °F /  4.4 °C 29.97in /  1014.8hPa North 4.0mph /  6.4km/h 8.0mph /  12.9km/h 81% 0.00in /  0mm
13:04 45.7 °F /  7.6 °C 40.5 °F /  4.7 °C 29.97in /  1014.8hPa North 3.0mph /  4.8km/h 7.0mph /  11.3km/h 82% 0.00in /  0mm
13:09 45.6 °F /  7.6 °C 40.1 °F /  4.5 °C 29.97in /  1014.8hPa North 3.0mph /  4.8km/h 8.0mph /  12.9km/h 81% 0.00in /  0mm
13:14 45.7 °F /  7.6 °C 40.2 °F /  4.6 °C 29.97in /  1014.8hPa NNW 3.0mph /  4.8km/h 8.0mph /  12.9km/h 81% 0.00in /  0mm
13:19 45.6 °F /  7.6 °C 40.1 °F /  4.5 °C 29.97in /  1014.8hPa NE 3.0mph /  4.8km/h 8.0mph /  12.9km/h 81% 0.00in /  0mm
13:24 45.8 °F /  7.7 °C 40.3 °F /  4.6 °C 29.97in /  1014.8hPa North 4.0mph /  6.4km/h 8.0mph /  12.9km/h 81% 0.00in /  0mm
13:29 45.8 °F /  7.7 °C 40.0 °F /  4.4 °C 29.97in /  1014.8hPa North 4.0mph /  6.4km/h 9.0mph /  14.5km/h 80% 0.00in /  0mm
13:34 45.6 °F /  7.6 °C 39.8 °F /  4.3 °C 29.97in /  1014.8hPa North 5.0mph /  8km/h 9.0mph /  14.5km/h 80% 0.00in /  0mm
13:39 45.8 °F /  7.7 °C 40.3 °F /  4.6 °C 29.97in /  1014.8hPa North 5.0mph /  8km/h 6.0mph /  9.7km/h 81% 0.00in /  0mm
13:44 45.8 °F /  7.7 °C 40.3 °F /  4.6 °C 29.97in /  1014.8hPa North 1.0mph /  1.6km/h 6.0mph /  9.7km/h 81% 0.00in /  0mm
13:49 45.6 °F /  7.6 °C 39.8 °F /  4.3 °C 29.97in /  1014.8hPa NE 3.0mph /  4.8km/h 8.0mph /  12.9km/h 80% 0.00in /  0mm
13:54 45.5 °F /  7.5 °C 39.7 °F /  4.3 °C 29.97in /  1014.8hPa North 4.0mph /  6.4km/h 8.0mph /  12.9km/h 80% 0.00in /  0mm
13:59 45.7 °F /  7.6 °C 40.2 °F /  4.6 °C 29.98in /  1015.1hPa North 4.0mph /  6.4km/h 9.0mph /  14.5km/h 81% 0.00in /  0mm
14:04 45.7 °F /  7.6 °C 39.9 °F /  4.4 °C 29.98in /  1015.1hPa NNW 2.0mph /  3.2km/h 9.0mph /  14.5km/h 80% 0.00in /  0mm
14:09 45.6 °F /  7.6 °C 40.1 °F /  4.5 °C 29.98in /  1015.1hPa NW 2.0mph /  3.2km/h 9.0mph /  14.5km/h 81% 0.00in /  0mm
14:14 45.6 °F /  7.6 °C 40.1 °F /  4.5 °C 29.98in /  1015.1hPa NNE 4.0mph /  6.4km/h 8.0mph /  12.9km/h 81% 0.00in /  0mm
14:19 45.7 °F /  7.6 °C 40.2 °F /  4.6 °C 29.98in /  1015.1hPa NNW 2.0mph /  3.2km/h 6.0mph /  9.7km/h 81% 0.00in /  0mm
14:24 46.0 °F /  7.8 °C 40.2 °F /  4.6 °C 29.98in /  1015.1hPa North 6.0mph /  9.7km/h 7.0mph /  11.3km/h 80% 0.00in /  0mm
14:29 45.7 °F /  7.6 °C 39.9 °F /  4.4 °C 29.98in /  1015.1hPa North 3.0mph /  4.8km/h 7.0mph /  11.3km/h 80% 0.00in /  0mm
14:34 45.7 °F /  7.6 °C 39.9 °F /  4.4 °C 29.98in /  1015.1hPa North 4.0mph /  6.4km/h 7.0mph /  11.3km/h 80% 0.00in /  0mm
14:39 45.8 °F /  7.7 °C 40.3 °F /  4.6 °C 29.98in /  1015.1hPa North 3.0mph /  4.8km/h 9.0mph /  14.5km/h 81% 0.00in /  0mm
14:44 45.9 °F /  7.7 °C 40.1 °F /  4.5 °C 29.98in /  1015.1hPa North 4.0mph /  6.4km/h 5.0mph /  8km/h 80% 0.00in /  0mm
14:49 46.0 °F /  7.8 °C 40.2 °F /  4.6 °C 29.98in /  1015.1hPa North 2.0mph /  3.2km/h 5.0mph /  8km/h 80% 0.00in /  0mm
14:54 45.9 °F /  7.7 °C 40.1 °F /  4.5 °C 29.98in /  1015.1hPa North 3.0mph /  4.8km/h 5.0mph /  8km/h 80% 0.00in /  0mm
14:59 46.3 °F /  7.9 °C 40.8 °F /  4.9 °C 29.98in /  1015.1hPa North 2.0mph /  3.2km/h 5.0mph /  8km/h 81% 0.00in /  0mm
15:04 46.1 °F /  7.8 °C 40.3 °F /  4.6 °C 29.99in /  1015.5hPa NNW 3.0mph /  4.8km/h 6.0mph /  9.7km/h 80% 0.00in /  0mm
15:09 46.1 °F /  7.8 °C 40.3 °F /  4.6 °C 29.99in /  1015.5hPa NNW 3.0mph /  4.8km/h 7.0mph /  11.3km/h 80% 0.00in /  0mm
15:14 46.5 °F /  8.1 °C 40.7 °F /  4.8 °C 29.99in /  1015.5hPa North 2.0mph /  3.2km/h 5.0mph /  8km/h 80% 0.00in /  0mm
15:19 46.7 °F /  8.2 °C 40.5 °F /  4.7 °C 29.99in /  1015.5hPa North 2.0mph /  3.2km/h 8.0mph /  12.9km/h 79% 0.00in /  0mm
15:24 46.9 °F /  8.3 °C 41.1 °F /  5.1 °C 29.99in /  1015.5hPa NW 2.0mph /  3.2km/h 5.0mph /  8km/h 80% 0.00in /  0mm
15:29 46.9 °F /  8.3 °C 40.7 °F /  4.8 °C 29.99in /  1015.5hPa NNW 3.0mph /  4.8km/h 7.0mph /  11.3km/h 79% 0.00in /  0mm
15:34 46.9 °F /  8.3 °C 40.7 °F /  4.8 °C 29.99in /  1015.5hPa North 4.0mph /  6.4km/h 7.0mph /  11.3km/h 79% 0.00in /  0mm
15:39 47.2 °F /  8.4 °C 41.0 °F /  5 °C 29.99in /  1015.5hPa North 3.0mph /  4.8km/h 7.0mph /  11.3km/h 79% 0.00in /  0mm
15:44 47.4 °F /  8.6 °C 41.2 °F /  5.1 °C 29.99in /  1015.5hPa North 3.0mph /  4.8km/h 7.0mph /  11.3km/h 79% 0.00in /  0mm
15:49 47.5 °F /  8.6 °C 41.0 °F /  5 °C 29.99in /  1015.5hPa NNW 3.0mph /  4.8km/h 7.0mph /  11.3km/h 78% 0.00in /  0mm
15:54 47.3 °F /  8.5 °C 41.1 °F /  5.1 °C 29.99in /  1015.5hPa NNW 3.0mph /  4.8km/h 7.0mph /  11.3km/h 79% 0.00in /  0mm
15:59 47.0 °F /  8.3 °C 40.8 °F /  4.9 °C 29.99in /  1015.5hPa NNW 2.0mph /  3.2km/h 6.0mph /  9.7km/h 79% 0.00in /  0mm
16:04 46.9 °F /  8.3 °C 40.7 °F /  4.8 °C 30.00in /  1015.8hPa North 3.0mph /  4.8km/h 7.0mph /  11.3km/h 79% 0.00in /  0mm
16:09 46.4 °F /  8 °C 40.2 °F /  4.6 °C 30.00in /  1015.8hPa North 7.0mph /  11.3km/h 8.0mph /  12.9km/h 79% 0.00in /  0mm
16:14 46.4 °F /  8 °C 40.6 °F /  4.8 °C 30.00in /  1015.8hPa North 4.0mph /  6.4km/h 10.0mph /  16.1km/h 80% 0.00in /  0mm
16:19 46.0 °F /  7.8 °C 40.2 °F /  4.6 °C 30.00in /  1015.8hPa North 5.0mph /  8km/h 9.0mph /  14.5km/h 80% 0.00in /  0mm
16:24 46.2 °F /  7.9 °C 40.7 °F /  4.8 °C 30.00in /  1015.8hPa NW 2.0mph /  3.2km/h 8.0mph /  12.9km/h 81% 0.00in /  0mm
16:29 46.2 °F /  7.9 °C 40.4 °F /  4.7 °C 30.00in /  1015.8hPa North 4.0mph /  6.4km/h 9.0mph /  14.5km/h 80% 0.00in /  0mm
16:34 46.0 °F /  7.8 °C 40.2 °F /  4.6 °C 30.01in /  1016.1hPa North 1.0mph /  1.6km/h 8.0mph /  12.9km/h 80% 0.00in /  0mm
16:39 46.0 °F /  7.8 °C 40.2 °F /  4.6 °C 30.01in /  1016.1hPa North 4.0mph /  6.4km/h 8.0mph /  12.9km/h 80% 0.00in /  0mm
16:44 46.2 °F /  7.9 °C 40.4 °F /  4.7 °C 30.01in /  1016.1hPa NNW 4.0mph /  6.4km/h 7.0mph /  11.3km/h 80% 0.00in /  0mm
16:49 46.3 °F /  7.9 °C 40.5 °F /  4.7 °C 30.01in /  1016.1hPa North 3.0mph /  4.8km/h 7.0mph /  11.3km/h 80% 0.00in /  0mm
16:54 46.6 °F /  8.1 °C 40.8 °F /  4.9 °C 30.01in /  1016.1hPa North 3.0mph /  4.8km/h 9.0mph /  14.5km/h 80% 0.00in /  0mm
16:59 46.7 °F /  8.2 °C 40.9 °F /  4.9 °C 30.01in /  1016.1hPa North 3.0mph /  4.8km/h 9.0mph /  14.5km/h 80% 0.00in /  0mm
17:04 46.8 °F /  8.2 °C 41.0 °F /  5 °C 30.02in /  1016.5hPa NE 5.0mph /  8km/h 8.0mph /  12.9km/h 80% 0.00in /  0mm
17:09 46.8 °F /  8.2 °C 41.0 °F /  5 °C 30.02in /  1016.5hPa North 2.0mph /  3.2km/h 8.0mph /  12.9km/h 80% 0.00in /  0mm
17:14 46.8 °F /  8.2 °C 41.0 °F /  5 °C 30.02in /  1016.5hPa NNE 3.0mph /  4.8km/h 6.0mph /  9.7km/h 80% 0.00in /  0mm
17:19 46.8 °F /  8.2 °C 41.0 °F /  5 °C 30.02in /  1016.5hPa NNE 2.0mph /  3.2km/h 7.0mph /  11.3km/h 80% 0.00in /  0mm
17:24 46.7 °F /  8.2 °C 41.2 °F /  5.1 °C 30.03in /  1016.8hPa North 5.0mph /  8km/h 6.0mph /  9.7km/h 81% 0.00in /  0mm
17:29 46.6 °F /  8.1 °C 41.1 °F /  5.1 °C 30.03in /  1016.8hPa NNE 5.0mph /  8km/h 8.0mph /  12.9km/h 81% 0.00in /  0mm
17:34 46.5 °F /  8.1 °C 41.0 °F /  5 °C 30.03in /  1016.8hPa NNW 2.0mph /  3.2km/h 7.0mph /  11.3km/h 81% 0.00in /  0mm
17:39 46.5 °F /  8.1 °C 41.0 °F /  5 °C 30.03in /  1016.8hPa North 5.0mph /  8km/h 6.0mph /  9.7km/h 81% 0.00in /  0mm
17:44 46.4 °F /  8 °C 40.9 °F /  4.9 °C 30.03in /  1016.8hPa North 3.0mph /  4.8km/h 6.0mph /  9.7km/h 81% 0.00in /  0mm
17:49 46.3 °F /  7.9 °C 40.8 °F /  4.9 °C 30.03in /  1016.8hPa North 3.0mph /  4.8km/h 6.0mph /  9.7km/h 81% 0.00in /  0mm
17:54 46.3 °F /  7.9 °C 40.8 °F /  4.9 °C 30.03in /  1016.8hPa North 4.0mph /  6.4km/h 8.0mph /  12.9km/h 81% 0.00in /  0mm
17:59 46.3 °F /  7.9 °C 40.8 °F /  4.9 °C 30.03in /  1016.8hPa North 3.0mph /  4.8km/h 8.0mph /  12.9km/h 81% 0.00in /  0mm
18:04 46.3 °F /  7.9 °C 40.8 °F /  4.9 °C 30.03in /  1016.8hPa North 3.0mph /  4.8km/h 6.0mph /  9.7km/h 81% 0.00in /  0mm
18:09 46.1 °F /  7.8 °C 40.6 °F /  4.8 °C 30.04in /  1017.2hPa North 3.0mph /  4.8km/h 6.0mph /  9.7km/h 81% 0.00in /  0mm
18:14 46.2 °F /  7.9 °C 40.7 °F /  4.8 °C 30.04in /  1017.2hPa North 3.0mph /  4.8km/h 6.0mph /  9.7km/h 81% 0.00in /  0mm
18:19 46.2 °F /  7.9 °C 40.7 °F /  4.8 °C 30.04in /  1017.2hPa NNE 4.0mph /  6.4km/h 6.0mph /  9.7km/h 81% 0.00in /  0mm
18:24 46.0 °F /  7.8 °C 40.8 °F /  4.9 °C 30.05in /  1017.5hPa NNW 4.0mph /  6.4km/h 7.0mph /  11.3km/h 82% 0.00in /  0mm
18:29 45.9 °F /  7.7 °C 40.7 °F /  4.8 °C 30.05in /  1017.5hPa North 5.0mph /  8km/h 9.0mph /  14.5km/h 82% 0.00in /  0mm
18:34 45.8 °F /  7.7 °C 40.6 °F /  4.8 °C 30.05in /  1017.5hPa North 5.0mph /  8km/h 8.0mph /  12.9km/h 82% 0.00in /  0mm
18:39 45.8 °F /  7.7 °C 40.6 °F /  4.8 °C 30.06in /  1017.8hPa NNW 3.0mph /  4.8km/h 6.0mph /  9.7km/h 82% 0.00in /  0mm
18:44 45.8 °F /  7.7 °C 40.6 °F /  4.8 °C 30.06in /  1017.8hPa North 4.0mph /  6.4km/h 8.0mph /  12.9km/h 82% 0.00in /  0mm
18:49 45.7 °F /  7.6 °C 40.5 °F /  4.7 °C 30.06in /  1017.8hPa North 4.0mph /  6.4km/h 9.0mph /  14.5km/h 82% 0.00in /  0mm
18:54 45.7 °F /  7.6 °C 40.5 °F /  4.7 °C 30.06in /  1017.8hPa North 4.0mph /  6.4km/h 10.0mph /  16.1km/h 82% 0.00in /  0mm
18:59 45.7 °F /  7.6 °C 40.5 °F /  4.7 °C 30.07in /  1018.2hPa North 3.0mph /  4.8km/h 10.0mph /  16.1km/h 82% 0.00in /  0mm
19:04 45.5 °F /  7.5 °C 40.0 °F /  4.4 °C 30.07in /  1018.2hPa North 3.0mph /  4.8km/h 7.0mph /  11.3km/h 81% 0.00in /  0mm
19:09 45.4 °F /  7.4 °C 40.2 °F /  4.6 °C 30.07in /  1018.2hPa NNW 4.0mph /  6.4km/h 7.0mph /  11.3km/h 82% 0.00in /  0mm
19:14 45.3 °F /  7.4 °C 40.1 °F /  4.5 °C 30.07in /  1018.2hPa NNW 2.0mph /  3.2km/h 6.0mph /  9.7km/h 82% 0.00in /  0mm
19:19 45.2 °F /  7.3 °C 40.0 °F /  4.4 °C 30.08in /  1018.5hPa NNE 4.0mph /  6.4km/h 8.0mph /  12.9km/h 82% 0.00in /  0mm
19:24 45.1 °F /  7.3 °C 39.9 °F /  4.4 °C 30.08in /  1018.5hPa NNE 4.0mph /  6.4km/h 9.0mph /  14.5km/h 82% 0.00in /  0mm
19:29 44.8 °F /  7.1 °C 40.0 °F /  4.4 °C 30.08in /  1018.5hPa NNE 4.0mph /  6.4km/h 7.0mph /  11.3km/h 83% 0.00in /  0mm
19:34 44.5 °F /  6.9 °C 40.0 °F /  4.4 °C 30.08in /  1018.5hPa North 4.0mph /  6.4km/h 7.0mph /  11.3km/h 84% 0.00in /  0mm
19:39 44.4 °F /  6.9 °C 39.9 °F /  4.4 °C 30.08in /  1018.5hPa North 2.0mph /  3.2km/h 10.0mph /  16.1km/h 84% 0.00in /  0mm
19:44 44.3 °F /  6.8 °C 40.1 °F /  4.5 °C 30.08in /  1018.5hPa North 3.0mph /  4.8km/h 9.0mph /  14.5km/h 85% 0.00in /  0mm
19:49 44.2 °F /  6.8 °C 40.0 °F /  4.4 °C 30.09in /  1018.8hPa North 4.0mph /  6.4km/h 9.0mph /  14.5km/h 85% 0.00in /  0mm
19:54 44.1 °F /  6.7 °C 39.9 °F /  4.4 °C 30.09in /  1018.8hPa North 3.0mph /  4.8km/h 9.0mph /  14.5km/h 85% 0.00in /  0mm
19:59 44.1 °F /  6.7 °C 39.9 °F /  4.4 °C 30.09in /  1018.8hPa North 3.0mph /  4.8km/h 8.0mph /  12.9km/h 85% 0.00in /  0mm
20:04 44.1 °F /  6.7 °C 39.6 °F /  4.2 °C 30.09in /  1018.8hPa North 4.0mph /  6.4km/h 9.0mph /  14.5km/h 84% 0.00in /  0mm
20:09 44.0 °F /  6.7 °C 39.5 °F /  4.2 °C 30.10in /  1019.2hPa North 2.0mph /  3.2km/h 9.0mph /  14.5km/h 84% 0.00in /  0mm
20:14 44.0 °F /  6.7 °C 39.2 °F /  4 °C 30.10in /  1019.2hPa NNW 3.0mph /  4.8km/h 6.0mph /  9.7km/h 83% 0.00in /  0mm
20:19 43.9 °F /  6.6 °C 39.1 °F /  3.9 °C 30.10in /  1019.2hPa NNE 6.0mph /  9.7km/h 7.0mph /  11.3km/h 83% 0.00in /  0mm
20:24 43.8 °F /  6.6 °C 39.0 °F /  3.9 °C 30.10in /  1019.2hPa NNW 4.0mph /  6.4km/h 7.0mph /  11.3km/h 83% 0.00in /  0mm
20:29 43.8 °F /  6.6 °C 39.0 °F /  3.9 °C 30.11in /  1019.5hPa North 4.0mph /  6.4km/h 8.0mph /  12.9km/h 83% 0.00in /  0mm
20:34 43.7 °F /  6.5 °C 38.6 °F /  3.7 °C 30.11in /  1019.5hPa NNE 3.0mph /  4.8km/h 7.0mph /  11.3km/h 82% 0.00in /  0mm
20:39 43.7 °F /  6.5 °C 38.6 °F /  3.7 °C 30.11in /  1019.5hPa North 1.0mph /  1.6km/h 8.0mph /  12.9km/h 82% 0.00in /  0mm
20:44 43.7 °F /  6.5 °C 38.6 °F /  3.7 °C 30.12in /  1019.9hPa North 4.0mph /  6.4km/h 6.0mph /  9.7km/h 82% 0.00in /  0mm
20:49 43.7 °F /  6.5 °C 38.6 °F /  3.7 °C 30.12in /  1019.9hPa North 3.0mph /  4.8km/h 8.0mph /  12.9km/h 82% 0.00in /  0mm
20:54 43.6 °F /  6.4 °C 38.5 °F /  3.6 °C 30.12in /  1019.9hPa North 3.0mph /  4.8km/h 8.0mph /  12.9km/h 82% 0.00in /  0mm
20:59 43.7 °F /  6.5 °C 38.6 °F /  3.7 °C 30.12in /  1019.9hPa North 2.0mph /  3.2km/h 5.0mph /  8km/h 82% 0.00in /  0mm
21:04 43.6 °F /  6.4 °C 38.5 °F /  3.6 °C 30.12in /  1019.9hPa NNW 2.0mph /  3.2km/h 4.0mph /  6.4km/h 82% 0.00in /  0mm
21:09 43.5 °F /  6.4 °C 38.4 °F /  3.6 °C 30.12in /  1019.9hPa NW 3.0mph /  4.8km/h 5.0mph /  8km/h 82% 0.00in /  0mm
21:14 43.5 °F /  6.4 °C 38.4 °F /  3.6 °C 30.12in /  1019.9hPa NW 3.0mph /  4.8km/h 8.0mph /  12.9km/h 82% 0.00in /  0mm
21:19 43.4 °F /  6.3 °C 38.0 °F /  3.3 °C 30.13in /  1020.2hPa NNW 3.0mph /  4.8km/h 8.0mph /  12.9km/h 81% 0.00in /  0mm
21:24 43.4 °F /  6.3 °C 38.0 °F /  3.3 °C 30.13in /  1020.2hPa NNW 5.0mph /  8km/h 5.0mph /  8km/h 81% 0.00in /  0mm
21:29 43.4 °F /  6.3 °C 38.0 °F /  3.3 °C 30.13in /  1020.2hPa NW 3.0mph /  4.8km/h 6.0mph /  9.7km/h 81% 0.00in /  0mm
21:34 43.3 °F /  6.3 °C 37.9 °F /  3.3 °C 30.13in /  1020.2hPa North 4.0mph /  6.4km/h 7.0mph /  11.3km/h 81% 0.00in /  0mm
21:39 43.2 °F /  6.2 °C 37.8 °F /  3.2 °C 30.13in /  1020.2hPa NNW 7.0mph /  11.3km/h 7.0mph /  11.3km/h 81% 0.00in /  0mm
21:44 43.2 °F /  6.2 °C 37.8 °F /  3.2 °C 30.14in /  1020.5hPa NNW 5.0mph /  8km/h 8.0mph /  12.9km/h 81% 0.00in /  0mm
21:49 43.1 °F /  6.2 °C 37.7 °F /  3.2 °C 30.14in /  1020.5hPa North 4.0mph /  6.4km/h 8.0mph /  12.9km/h 81% 0.00in /  0mm
21:54 43.1 °F /  6.2 °C 37.7 °F /  3.2 °C 30.14in /  1020.5hPa North 3.0mph /  4.8km/h 5.0mph /  8km/h 81% 0.00in /  0mm
21:59 43.0 °F /  6.1 °C 37.6 °F /  3.1 °C 30.14in /  1020.5hPa North 3.0mph /  4.8km/h 5.0mph /  8km/h 81% 0.00in /  0mm
22:04 42.9 °F /  6.1 °C 37.5 °F /  3.1 °C 30.14in /  1020.5hPa NNW 3.0mph /  4.8km/h 7.0mph /  11.3km/h 81% 0.00in /  0mm
22:09 42.8 °F /  6 °C 37.4 °F /  3 °C 30.15in /  1020.9hPa NW 2.0mph /  3.2km/h 9.0mph /  14.5km/h 81% 0.00in /  0mm
22:14 42.8 °F /  6 °C 37.4 °F /  3 °C 30.15in /  1020.9hPa NNW 3.0mph /  4.8km/h 5.0mph /  8km/h 81% 0.00in /  0mm
22:19 42.7 °F /  5.9 °C 37.3 °F /  2.9 °C 30.15in /  1020.9hPa NNW 3.0mph /  4.8km/h 8.0mph /  12.9km/h 81% 0.00in /  0mm
22:24 42.7 °F /  5.9 °C 37.3 °F /  2.9 °C 30.15in /  1020.9hPa NNW 3.0mph /  4.8km/h 8.0mph /  12.9km/h 81% 0.00in /  0mm
22:29 42.7 °F /  5.9 °C 37.3 °F /  2.9 °C 30.15in /  1020.9hPa NNW 2.0mph /  3.2km/h 5.0mph /  8km/h 81% 0.00in /  0mm
22:34 42.6 °F /  5.9 °C 37.2 °F /  2.9 °C 30.15in /  1020.9hPa NW 2.0mph /  3.2km/h 6.0mph /  9.7km/h 81% 0.00in /  0mm
22:39 42.5 °F /  5.8 °C 37.1 °F /  2.8 °C 30.15in /  1020.9hPa NNW 4.0mph /  6.4km/h 7.0mph /  11.3km/h 81% 0.00in /  0mm
22:44 42.5 °F /  5.8 °C 37.1 °F /  2.8 °C 30.15in /  1020.9hPa NNW 3.0mph /  4.8km/h 5.0mph /  8km/h 81% 0.00in /  0mm
22:49 42.5 °F /  5.8 °C 37.1 °F /  2.8 °C 30.15in /  1020.9hPa NNW 2.0mph /  3.2km/h 6.0mph /  9.7km/h 81% 0.00in /  0mm
22:54 42.4 °F /  5.8 °C 37.0 °F /  2.8 °C 30.15in /  1020.9hPa NNW 3.0mph /  4.8km/h 7.0mph /  11.3km/h 81% 0.00in /  0mm
22:59 42.4 °F /  5.8 °C 37.0 °F /  2.8 °C 30.15in /  1020.9hPa North 2.0mph /  3.2km/h 8.0mph /  12.9km/h 81% 0.00in /  0mm
23:04 42.4 °F /  5.8 °C 37.0 °F /  2.8 °C 30.15in /  1020.9hPa North 3.0mph /  4.8km/h 5.0mph /  8km/h 81% 0.00in /  0mm
23:09 42.4 °F /  5.8 °C 37.0 °F /  2.8 °C 30.15in /  1020.9hPa NNW 2.0mph /  3.2km/h 5.0mph /  8km/h 81% 0.00in /  0mm
23:14 42.3 °F /  5.7 °C 36.9 °F /  2.7 °C 30.15in /  1020.9hPa NW 1.0mph /  1.6km/h 3.0mph /  4.8km/h 81% 0.00in /  0mm
23:19 42.4 °F /  5.8 °C 37.0 °F /  2.8 °C 30.15in /  1020.9hPa NNW 1.0mph /  1.6km/h 3.0mph /  4.8km/h 81% 0.00in /  0mm
23:24 42.3 °F /  5.7 °C 36.9 °F /  2.7 °C 30.15in /  1020.9hPa NNW 2.0mph /  3.2km/h 5.0mph /  8km/h 81% 0.00in /  0mm
23:29 42.3 °F /  5.7 °C 36.9 °F /  2.7 °C 30.15in /  1020.9hPa NNW 2.0mph /  3.2km/h 5.0mph /  8km/h 81% 0.00in /  0mm
23:34 42.3 °F /  5.7 °C 36.9 °F /  2.7 °C 30.15in /  1020.9hPa NNW 2.0mph /  3.2km/h 5.0mph /  8km/h 81% 0.00in /  0mm
23:39 42.3 °F /  5.7 °C 36.9 °F /  2.7 °C 30.15in /  1020.9hPa NNW 3.0mph /  4.8km/h 5.0mph /  8km/h 81% 0.00in /  0mm
23:44 42.3 °F /  5.7 °C 36.9 °F /  2.7 °C 30.15in /  1020.9hPa NNW 3.0mph /  4.8km/h 7.0mph /  11.3km/h 81% 0.00in /  0mm
23:49 42.3 °F /  5.7 °C 36.6 °F /  2.6 °C 30.15in /  1020.9hPa NNW 3.0mph /  4.8km/h 7.0mph /  11.3km/h 80% 0.00in /  0mm
23:54 42.3 °F /  5.7 °C 36.6 °F /  2.6 °C 30.15in /  1020.9hPa NNW 3.0mph /  4.8km/h 4.0mph /  6.4km/h 80% 0.00in /  0mm
23:59 42.2 °F /  5.7 °C 36.5 °F /  2.5 °C 30.15in /  1020.9hPa NNW 3.0mph /  4.8km/h 7.0mph /  11.3km/h 80% 0.00in /  0mm
Buffalo, New York, USA
Compliments of Weather Underground - 2.5 mb